Time;durP1;ratioP1;P1;durP2;ratioP2;P2;SDS_P1;SDS_P2;PMS_P1;PMS_P2;Temp;Humidity;BMP_temperature;BMP_pressure;BME280_temperature;BME280_humidity;BME280_pressure;Samples;Min_cycle;Max_cycle;Signal;HPM_P1;HPM_P2
2022/02/24 00:02:09;;;;;;;12.55;3.60;;;7.70;99.90;;;;;;5100018;28;20040;-76
2022/02/24 00:04:35;;;;;;;15.20;4.30;;;7.80;99.90;;;;;;5071702;28;20059;-76
2022/02/24 00:07:01;;;;;;;14.07;3.65;;;7.70;99.90;;;;;;5079095;28;20058;-76
2022/02/24 00:09:27;;;;;;;12.07;3.13;;;7.70;99.90;;;;;;5072793;28;20067;-76
2022/02/24 00:11:54;;;;;;;14.48;3.42;;;7.70;99.90;;;;;;5086105;28;20091;-77
2022/02/24 00:14:20;;;;;;;13.07;3.65;;;7.70;99.90;;;;;;5069190;28;20059;-76
2022/02/24 00:16:46;;;;;;;13.40;3.65;;;7.70;99.90;;;;;;5074034;28;20059;-76
2022/02/24 00:19:12;;;;;;;8.43;3.22;;;7.70;99.90;;;;;;5094393;28;20123;-77
2022/02/24 00:21:37;;;;;;;10.57;3.38;;;7.80;99.90;;;;;;5076220;28;20032;-76
2022/02/24 00:24:04;;;;;;;14.60;3.90;;;7.80;99.90;;;;;;5078926;28;20089;-77
2022/02/24 00:26:30;;;;;;;14.93;3.72;;;7.80;99.90;;;;;;5097142;28;20450;-76
2022/02/24 00:28:56;;;;;;;12.35;3.38;;;7.80;99.90;;;;;;5079399;28;20406;-77
2022/02/24 00:31:22;;;;;;;11.68;3.63;;;7.80;99.90;;;;;;5070069;28;20047;-76
2022/02/24 00:33:48;;;;;;;13.95;3.35;;;7.80;99.90;;;;;;5086042;28;20396;-76
2022/02/24 00:36:14;;;;;;;15.75;3.90;;;7.90;99.90;;;;;;5088408;28;20373;-76
2022/02/24 00:38:40;;;;;;;11.15;3.03;;;7.90;99.90;;;;;;5088939;28;20036;-76
2022/02/24 00:41:06;;;;;;;13.27;2.78;;;7.90;99.90;;;;;;5087526;28;20036;-76
2022/02/24 00:43:31;;;;;;;11.30;3.17;;;7.90;99.90;;;;;;5080328;28;20047;-75
2022/02/24 00:46:00;;;;;;;12.23;3.35;;;7.90;99.90;;;;;;5079111;28;20445;-76
2022/02/24 00:48:26;;;;;;;11.63;3.25;;;7.90;99.90;;;;;;5086618;28;20130;-76
2022/02/24 00:50:54;;;;;;;16.40;3.75;;;7.90;99.90;;;;;;5051441;28;20119;-76
2022/02/24 00:53:20;;;;;;;17.10;3.85;;;7.90;99.90;;;;;;5086570;28;20050;-76
2022/02/24 00:55:46;;;;;;;11.98;2.95;;;7.90;99.90;;;;;;5064049;28;20032;-76
2022/02/24 00:58:12;;;;;;;12.02;3.13;;;7.90;99.90;;;;;;5100144;28;20044;-76
2022/02/24 01:00:38;;;;;;;12.25;2.88;;;7.90;99.90;;;;;;5077732;28;20040;-76
2022/02/24 01:03:04;;;;;;;12.98;3.30;;;7.90;99.90;;;;;;5063247;28;20122;-76
2022/02/24 01:05:29;;;;;;;11.95;3.05;;;7.80;99.90;;;;;;5089628;28;20132;-76
2022/02/24 01:07:55;;;;;;;11.85;3.03;;;7.80;99.90;;;;;;5077351;28;20123;-75
2022/02/24 01:10:21;;;;;;;14.00;3.03;;;7.80;99.90;;;;;;5089181;28;20121;-76
2022/02/24 01:12:47;;;;;;;8.80;2.33;;;7.70;99.90;;;;;;5087520;28;20771;-82
2022/02/24 01:15:13;;;;;;;15.55;3.40;;;7.80;99.90;;;;;;5070641;28;20102;-81
2022/02/24 01:17:40;;;;;;;13.15;3.13;;;7.80;99.90;;;;;;5075973;28;20035;-80
2022/02/24 01:20:07;;;;;;;12.13;2.83;;;7.80;99.90;;;;;;5072178;28;20483;-83
2022/02/24 01:22:33;;;;;;;7.80;2.58;;;7.70;99.90;;;;;;5075239;28;20052;-78
2022/02/24 01:24:59;;;;;;;13.27;2.63;;;7.70;99.90;;;;;;5097861;28;20101;-77
2022/02/24 01:27:25;;;;;;;9.30;2.60;;;7.70;99.90;;;;;;5066167;28;20047;-76
2022/02/24 01:29:50;;;;;;;10.82;3.28;;;7.80;99.90;;;;;;5087092;28;20074;-77
2022/02/24 01:32:16;;;;;;;14.43;4.07;;;7.80;99.90;;;;;;5100357;28;20043;-77
2022/02/24 01:34:42;;;;;;;9.02;2.50;;;7.70;99.90;;;;;;5076647;28;20049;-78
2022/02/24 01:37:08;;;;;;;9.80;2.38;;;7.80;99.90;;;;;;5057781;28;20447;-76
2022/02/24 01:39:34;;;;;;;14.32;2.70;;;7.70;99.90;;;;;;5082936;28;20048;-77
2022/02/24 01:42:01;;;;;;;10.52;2.30;;;7.70;99.90;;;;;;5088153;28;20550;-77
2022/02/24 01:44:39;;;;;;;11.07;2.42;;;7.70;99.90;;;;;;5087321;28;20073;-76
2022/02/24 01:47:05;;;;;;;13.68;2.78;;;7.70;99.90;;;;;;5123850;27;20122;-77
2022/02/24 01:49:30;;;;;;;10.60;2.78;;;7.70;99.90;;;;;;5052092;28;20147;-76
2022/02/24 01:51:56;;;;;;;13.07;2.58;;;7.70;99.90;;;;;;5050127;28;20122;-77
2022/02/24 01:54:22;;;;;;;10.48;2.72;;;7.70;99.90;;;;;;5101163;28;20039;-76
2022/02/24 01:56:48;;;;;;;8.38;2.45;;;7.70;99.90;;;;;;5081351;28;20045;-76
2022/02/24 01:59:14;;;;;;;9.18;2.45;;;7.70;99.90;;;;;;5082141;28;20040;-74
2022/02/24 02:01:40;;;;;;;10.45;2.85;;;7.70;99.90;;;;;;5076281;28;20138;-76
2022/02/24 02:04:06;;;;;;;9.75;2.50;;;7.70;99.90;;;;;;5085711;28;20126;-75
2022/02/24 02:06:33;;;;;;;11.13;2.53;;;7.70;99.90;;;;;;5086440;28;20111;-76
2022/02/24 02:08:59;;;;;;;11.05;2.47;;;7.60;99.90;;;;;;5073833;28;20043;-75
2022/02/24 02:11:25;;;;;;;12.13;2.85;;;7.60;99.90;;;;;;5062478;28;20046;-76
2022/02/24 02:13:51;;;;;;;13.02;2.45;;;7.70;99.90;;;;;;5081322;28;20615;-76
2022/02/24 02:16:17;;;;;;;13.82;2.90;;;7.60;99.90;;;;;;5100435;28;20043;-76
2022/02/24 02:18:43;;;;;;;13.02;2.58;;;7.60;99.90;;;;;;5092403;28;20047;-76
2022/02/24 02:21:09;;;;;;;9.43;2.80;;;7.60;99.90;;;;;;5103120;28;20096;-77
2022/02/24 02:23:35;;;;;;;14.18;2.92;;;7.60;99.90;;;;;;5089248;28;20134;-76
2022/02/24 02:26:00;;;;;;;10.80;2.50;;;7.60;99.90;;;;;;5086313;28;20044;-76
2022/02/24 02:28:26;;;;;;;11.25;2.85;;;7.60;99.90;;;;;;5065735;28;20043;-77
2022/02/24 02:30:52;;;;;;;14.68;2.97;;;7.60;99.90;;;;;;5096315;28;20051;-76
2022/02/24 02:33:18;;;;;;;9.55;2.63;;;7.60;99.90;;;;;;5103116;28;20130;-77
2022/02/24 02:35:44;;;;;;;11.60;2.50;;;7.60;99.90;;;;;;5105896;28;20077;-76
2022/02/24 02:38:10;;;;;;;9.93;2.63;;;7.60;99.90;;;;;;5103974;27;20035;-76
2022/02/24 02:40:38;;;;;;;13.05;3.08;;;7.50;99.90;;;;;;5082036;28;20050;-76
2022/02/24 02:43:08;;;;;;;13.95;2.75;;;7.50;99.90;;;;;;5098485;28;20047;-75
2022/02/24 02:45:35;;;;;;;14.10;3.10;;;7.50;99.90;;;;;;5066045;28;20032;-76
2022/02/24 02:48:01;;;;;;;13.75;3.13;;;7.50;99.90;;;;;;5104842;28;20406;-76
2022/02/24 02:50:30;;;;;;;12.48;3.20;;;7.50;99.90;;;;;;5090818;28;20047;-76
2022/02/24 02:52:56;;;;;;;12.30;2.70;;;7.50;99.90;;;;;;5078805;28;20112;-75
2022/02/24 02:55:21;;;;;;;10.90;2.80;;;7.50;99.90;;;;;;5082597;28;20636;-76
2022/02/24 02:57:48;;;;;;;14.90;3.08;;;7.50;99.90;;;;;;5073031;28;20500;-76
2022/02/24 03:00:15;;;;;;;13.52;2.40;;;7.40;99.90;;;;;;5085787;28;20161;-75
2022/02/24 03:02:41;;;;;;;10.57;2.50;;;7.40;99.90;;;;;;5104491;27;20040;-76
2022/02/24 03:05:08;;;;;;;11.13;3.25;;;7.40;99.90;;;;;;5122776;27;20108;-77
2022/02/24 03:07:35;;;;;;;12.07;2.78;;;7.40;99.90;;;;;;5054773;28;20048;-75
2022/02/24 03:10:02;;;;;;;9.35;2.72;;;7.40;99.90;;;;;;5072498;28;20161;-76
2022/02/24 03:12:37;;;;;;;7.90;2.53;;;7.40;99.90;;;;;;5102956;28;20168;-76
2022/02/24 03:15:13;;;;;;;10.88;3.25;;;7.40;99.90;;;;;;5073374;28;20040;-75
2022/02/24 03:17:43;;;;;;;12.13;3.00;;;7.40;99.90;;;;;;5088023;28;20032;-76
2022/02/24 03:20:13;;;;;;;11.20;2.95;;;7.40;99.90;;;;;;5068287;28;20048;-75
2022/02/24 03:22:40;;;;;;;12.98;2.60;;;7.40;99.90;;;;;;5067255;28;20067;-75
2022/02/24 03:25:06;;;;;;;11.90;2.65;;;7.40;99.90;;;;;;5111037;27;20060;-76
2022/02/24 03:27:32;;;;;;;11.35;2.90;;;7.40;99.90;;;;;;5084388;28;20055;-75
2022/02/24 03:30:03;;;;;;;13.75;2.78;;;7.40;99.90;;;;;;5099236;28;20530;-75
2022/02/24 03:32:30;;;;;;;13.52;2.47;;;7.40;99.90;;;;;;5086084;28;20380;-76
2022/02/24 03:34:56;;;;;;;9.45;2.17;;;7.40;99.90;;;;;;5087717;28;20076;-77
2022/02/24 03:37:21;;;;;;;11.73;2.50;;;7.40;99.90;;;;;;5053794;28;20090;-77
2022/02/24 03:39:48;;;;;;;14.15;2.90;;;7.40;99.90;;;;;;5070010;28;20036;-77
2022/02/24 03:42:14;;;;;;;11.95;3.13;;;7.40;99.90;;;;;;5087835;28;20051;-76
2022/02/24 03:44:41;;;;;;;12.23;2.33;;;7.40;99.90;;;;;;5121627;27;20055;-76
2022/02/24 03:47:06;;;;;;;8.73;1.98;;;7.30;99.90;;;;;;5053659;28;20069;-76
2022/02/24 03:49:32;;;;;;;12.57;2.90;;;7.30;99.90;;;;;;5070252;28;20048;-76
2022/02/24 03:51:58;;;;;;;13.73;2.70;;;7.30;99.90;;;;;;5083423;28;20486;-77
2022/02/24 03:54:24;;;;;;;10.63;2.15;;;7.30;99.90;;;;;;5066998;28;20136;-77
2022/02/24 03:56:50;;;;;;;11.95;2.47;;;7.30;99.90;;;;;;5066291;28;20037;-76
2022/02/24 03:59:18;;;;;;;14.05;3.13;;;7.30;99.90;;;;;;5084199;28;20052;-77
2022/02/24 04:01:46;;;;;;;11.05;2.35;;;7.20;99.90;;;;;;5085152;28;20173;-77
2022/02/24 04:04:14;;;;;;;11.00;2.28;;;7.20;99.90;;;;;;5070415;28;20063;-76
2022/02/24 04:06:40;;;;;;;10.98;2.58;;;7.30;99.90;;;;;;5053660;28;20055;-77
2022/02/24 04:09:06;;;;;;;12.88;3.00;;;7.20;99.90;;;;;;5086836;28;20048;-76
2022/02/24 04:11:32;;;;;;;9.85;2.30;;;7.30;99.90;;;;;;5070381;28;20051;-76
2022/02/24 04:14:01;;;;;;;9.55;2.58;;;7.30;99.90;;;;;;5065455;28;20056;-77
2022/02/24 04:16:28;;;;;;;10.40;2.65;;;7.30;99.90;;;;;;5083594;28;20040;-77
2022/02/24 04:18:53;;;;;;;11.32;2.42;;;7.30;99.90;;;;;;5049838;28;20491;-77
2022/02/24 04:21:19;;;;;;;11.30;2.28;;;7.30;99.90;;;;;;5058266;28;20052;-77
2022/02/24 04:23:45;;;;;;;10.50;2.38;;;7.30;99.90;;;;;;5083552;28;20063;-77
2022/02/24 04:26:11;;;;;;;12.98;3.08;;;7.30;99.90;;;;;;5086709;28;20520;-76
2022/02/24 04:28:37;;;;;;;11.02;2.58;;;7.30;99.90;;;;;;5086707;28;20130;-77
2022/02/24 04:31:03;;;;;;;10.85;2.75;;;7.40;99.90;;;;;;5103699;28;20064;-76
2022/02/24 04:33:28;;;;;;;15.55;3.08;;;7.40;99.90;;;;;;5121166;27;20113;-76
2022/02/24 04:35:54;;;;;;;13.45;2.40;;;7.30;99.90;;;;;;5103134;28;20059;-76
2022/02/24 04:38:23;;;;;;;9.98;2.90;;;7.30;99.90;;;;;;5120841;27;20054;-76
2022/02/24 04:40:49;;;;;;;12.55;2.83;;;7.30;99.90;;;;;;5120096;27;20046;-76
2022/02/24 04:43:15;;;;;;;14.52;3.22;;;7.30;99.90;;;;;;5086910;28;20040;-75
2022/02/24 04:45:41;;;;;;;17.55;3.60;;;7.40;99.90;;;;;;5114702;27;20139;-76
2022/02/24 04:48:07;;;;;;;12.82;2.83;;;7.30;99.90;;;;;;5083117;28;20044;-75
2022/02/24 04:50:34;;;;;;;14.80;4.05;;;7.30;99.90;;;;;;5101327;28;20051;-77
2022/02/24 04:53:00;;;;;;;12.20;2.90;;;7.30;99.90;;;;;;5067545;28;20055;-78
2022/02/24 04:55:25;;;;;;;13.68;4.30;;;7.30;99.90;;;;;;5085096;28;20045;-75
2022/02/24 04:57:51;;;;;;;16.08;3.88;;;7.30;99.90;;;;;;5084470;28;20274;-75
2022/02/24 05:00:17;;;;;;;11.60;3.17;;;7.20;99.90;;;;;;5084172;28;20055;-77
2022/02/24 05:02:43;;;;;;;10.27;3.00;;;7.20;99.90;;;;;;5117101;27;20044;-76
2022/02/24 05:05:09;;;;;;;9.98;3.65;;;7.20;99.90;;;;;;5053323;28;20483;-76
2022/02/24 05:07:35;;;;;;;13.57;3.53;;;7.20;99.90;;;;;;5069915;28;20047;-75
2022/02/24 05:10:02;;;;;;;11.00;2.92;;;7.20;99.90;;;;;;5053068;28;20380;-76
2022/02/24 05:12:29;;;;;;;10.60;3.20;;;7.10;99.90;;;;;;5104739;28;20510;-77
2022/02/24 05:14:55;;;;;;;13.15;3.45;;;7.20;99.90;;;;;;5070568;28;20072;-75
2022/02/24 05:17:21;;;;;;;13.25;3.75;;;7.20;99.90;;;;;;5087399;28;20044;-76
2022/02/24 05:19:49;;;;;;;11.18;3.17;;;7.10;99.90;;;;;;5069046;28;20055;-75
2022/02/24 05:22:15;;;;;;;11.77;3.47;;;7.10;99.90;;;;;;5066492;28;20379;-76
2022/02/24 05:24:41;;;;;;;11.27;3.25;;;7.10;99.90;;;;;;5042212;28;20048;-76
2022/02/24 05:27:07;;;;;;;12.35;3.40;;;7.10;99.90;;;;;;5069753;28;20270;-75
2022/02/24 05:29:33;;;;;;;13.52;3.33;;;7.10;99.90;;;;;;5053539;28;20106;-75
2022/02/24 05:31:58;;;;;;;12.73;3.45;;;7.20;99.90;;;;;;5069550;28;20246;-75
2022/02/24 05:34:24;;;;;;;10.55;2.78;;;7.10;99.90;;;;;;5103736;28;20086;-76
2022/02/24 05:36:50;;;;;;;12.38;3.20;;;7.20;99.90;;;;;;5069719;28;20040;-76
2022/02/24 05:39:16;;;;;;;12.52;3.53;;;7.20;99.90;;;;;;5086575;28;20047;-77
2022/02/24 05:41:42;;;;;;;14.80;3.70;;;7.20;99.90;;;;;;5052406;28;20044;-76
2022/02/24 05:44:08;;;;;;;12.65;3.72;;;7.20;99.90;;;;;;5086945;28;20534;-76
2022/02/24 05:46:34;;;;;;;11.85;3.13;;;7.20;99.90;;;;;;5052714;28;20130;-76
2022/02/24 05:49:00;;;;;;;9.63;2.90;;;7.20;99.90;;;;;;5064166;28;20056;-76
2022/02/24 05:51:26;;;;;;;11.77;3.42;;;7.20;99.90;;;;;;5069985;28;20044;-76
2022/02/24 05:53:51;;;;;;;13.50;3.38;;;7.20;99.90;;;;;;5069963;28;20056;-76
2022/02/24 05:56:17;;;;;;;12.68;3.58;;;7.30;99.90;;;;;;5070070;28;20752;-75
2022/02/24 05:58:43;;;;;;;10.25;3.10;;;7.30;99.90;;;;;;5088921;28;20079;-75
2022/02/24 06:01:10;;;;;;;13.73;3.20;;;7.30;99.90;;;;;;5110798;27;20119;-76
2022/02/24 06:03:36;;;;;;;13.60;4.25;;;7.30;99.90;;;;;;5053616;28;20040;-76
2022/02/24 06:06:02;;;;;;;17.45;3.75;;;7.30;99.90;;;;;;5040983;28;20079;-76
2022/02/24 06:08:28;;;;;;;12.93;3.53;;;7.30;99.90;;;;;;5058321;28;20090;-76
2022/02/24 06:10:55;;;;;;;11.93;3.25;;;7.30;99.90;;;;;;5093554;28;20032;-76
2022/02/24 06:13:21;;;;;;;16.02;3.60;;;7.30;99.90;;;;;;5070601;28;20075;-75
2022/02/24 06:15:47;;;;;;;12.07;3.88;;;7.30;99.90;;;;;;5072407;28;20072;-75
2022/02/24 06:18:18;;;;;;;9.88;3.28;;;7.30;99.90;;;;;;5083318;28;20494;-76
2022/02/24 06:20:44;;;;;;;14.75;4.40;;;7.30;99.90;;;;;;5070929;28;20047;-76
2022/02/24 06:23:10;;;;;;;11.70;3.30;;;7.40;99.90;;;;;;5073301;28;20391;-76
2022/02/24 06:25:36;;;;;;;9.63;3.05;;;7.40;99.90;;;;;;5082631;28;20085;-76
2022/02/24 06:28:02;;;;;;;11.98;3.90;;;7.40;99.90;;;;;;5061065;28;20083;-76
2022/02/24 06:30:31;;;;;;;10.00;2.83;;;7.40;99.90;;;;;;5067398;28;20494;-77
2022/02/24 06:32:56;;;;;;;9.23;3.10;;;7.40;99.90;;;;;;5076744;28;20093;-77
2022/02/24 06:35:22;;;;;;;10.13;3.42;;;7.40;99.90;;;;;;5043239;28;20056;-77
2022/02/24 06:37:48;;;;;;;10.23;2.90;;;7.40;99.90;;;;;;5065707;28;20046;-77
2022/02/24 06:40:14;;;;;;;12.13;3.10;;;7.40;99.90;;;;;;5071778;28;20064;-76
2022/02/24 06:42:40;;;;;;;14.50;3.75;;;7.40;99.90;;;;;;5087747;28;20445;-76
2022/02/24 06:45:07;;;;;;;10.35;3.10;;;7.40;99.90;;;;;;5066816;28;20038;-77
2022/02/24 06:47:34;;;;;;;13.00;4.50;;;7.40;99.90;;;;;;5083075;28;20118;-76
2022/02/24 06:50:00;;;;;;;9.32;4.03;;;7.40;99.90;;;;;;5066062;28;20036;-77
2022/02/24 06:52:26;;;;;;;10.82;3.95;;;7.40;99.90;;;;;;5087110;28;20375;-75
2022/02/24 06:54:52;;;;;;;10.70;3.45;;;7.40;99.90;;;;;;5065016;28;20461;-76
2022/02/24 06:57:18;;;;;;;9.60;3.13;;;7.40;99.90;;;;;;5077095;28;20457;-75
2022/02/24 06:59:44;;;;;;;12.30;3.65;;;7.40;99.90;;;;;;5060318;28;20066;-75
2022/02/24 07:02:10;;;;;;;13.70;3.65;;;7.40;99.90;;;;;;5092617;28;20463;-76
2022/02/24 07:04:36;;;;;;;14.88;3.67;;;7.50;99.90;;;;;;5075146;28;20061;-76
2022/02/24 07:07:02;;;;;;;11.85;3.75;;;7.50;99.90;;;;;;5077580;28;20048;-75
2022/02/24 07:09:28;;;;;;;10.90;3.42;;;7.50;99.90;;;;;;5070185;28;20044;-76
2022/02/24 07:11:54;;;;;;;14.93;3.90;;;7.60;99.90;;;;;;5070749;28;20046;-76
2022/02/24 07:14:20;;;;;;;10.70;4.13;;;7.50;99.90;;;;;;5067046;28;20035;-75
2022/02/24 07:16:47;;;;;;;12.13;3.63;;;7.60;99.90;;;;;;5062914;28;20094;-77
2022/02/24 07:19:14;;;;;;;13.18;3.60;;;7.60;99.90;;;;;;5053108;28;20036;-77
2022/02/24 07:21:40;;;;;;;14.25;4.30;;;7.60;99.90;;;;;;5067642;28;20114;-75
2022/02/24 07:24:07;;;;;;;10.38;3.22;;;7.60;99.90;;;;;;5068397;28;20043;-77
2022/02/24 07:26:33;;;;;;;12.40;3.85;;;7.60;99.90;;;;;;5079137;28;20056;-76
2022/02/24 07:28:59;;;;;;;13.65;3.40;;;7.60;99.90;;;;;;5056228;28;20092;-75
2022/02/24 07:31:25;;;;;;;13.40;4.05;;;7.60;99.90;;;;;;5077125;28;20049;-75
2022/02/24 07:33:50;;;;;;;13.15;4.07;;;7.60;99.90;;;;;;5051871;28;20560;-76
2022/02/24 07:36:16;;;;;;;11.75;3.33;;;7.70;99.90;;;;;;5051858;28;20458;-77
2022/02/24 07:38:43;;;;;;;15.38;4.18;;;7.70;99.90;;;;;;5065130;28;20044;-76
2022/02/24 07:41:09;;;;;;;11.38;3.90;;;7.70;99.90;;;;;;5125350;27;20044;-77
2022/02/24 07:43:36;;;;;;;12.52;3.65;;;7.70;99.90;;;;;;5112484;27;20040;-82
2022/02/24 07:46:05;;;;;;;13.45;3.95;;;7.80;99.90;;;;;;5059874;28;20135;-80
2022/02/24 07:48:31;;;;;;;15.50;3.70;;;7.80;99.90;;;;;;5052901;28;20076;-83
2022/02/24 07:50:57;;;;;;;12.73;4.25;;;7.80;99.90;;;;;;5071285;28;20067;-82
2022/02/24 07:53:28;;;;;;;13.15;4.00;;;7.80;99.90;;;;;;5068053;28;20040;-81
2022/02/24 07:56:00;;;;;;;10.18;3.97;;;7.80;99.90;;;;;;5052089;28;20123;-80
2022/02/24 07:58:29;;;;;;;9.85;3.55;;;7.80;99.90;;;;;;5062175;28;20567;-81
2022/02/24 08:00:55;;;;;;;14.48;4.22;;;7.80;99.90;;;;;;5065985;28;20036;-77
2022/02/24 08:03:21;;;;;;;13.65;4.15;;;7.90;99.90;;;;;;5100198;28;20405;-81
2022/02/24 08:05:46;;;;;;;13.25;3.80;;;7.90;99.90;;;;;;5069246;28;20044;-79
2022/02/24 08:08:12;;;;;;;13.00;4.57;;;7.90;99.90;;;;;;5065498;28;20127;-82
2022/02/24 08:10:38;;;;;;;13.70;4.60;;;8.00;99.90;;;;;;5085169;28;20459;-81
2022/02/24 08:13:04;;;;;;;15.60;3.85;;;8.00;99.90;;;;;;5073246;28;20081;-82
2022/02/24 08:15:30;;;;;;;13.55;5.03;;;8.00;99.90;;;;;;5110982;27;20040;-82
2022/02/24 08:17:56;;;;;;;10.32;3.45;;;8.00;99.90;;;;;;5078332;28;20040;-82
2022/02/24 08:20:22;;;;;;;17.10;4.20;;;8.00;99.90;;;;;;5080206;28;20076;-82
2022/02/24 08:22:49;;;;;;;13.38;4.10;;;8.10;99.90;;;;;;5054476;28;20518;-82
2022/02/24 08:25:17;;;;;;;12.85;4.50;;;8.20;99.90;;;;;;5063576;28;20040;-82
2022/02/24 08:27:44;;;;;;;15.23;4.95;;;8.20;99.90;;;;;;5078212;28;20044;-82
2022/02/24 08:30:12;;;;;;;15.27;4.40;;;8.30;99.90;;;;;;5076990;28;20051;-82
2022/02/24 08:32:40;;;;;;;14.02;4.05;;;8.40;99.90;;;;;;5051876;28;20100;-80
2022/02/24 08:35:08;;;;;;;12.40;4.55;;;8.40;99.90;;;;;;5067809;28;20076;-82
2022/02/24 08:37:34;;;;;;;13.07;3.92;;;8.50;99.90;;;;;;5099454;28;20498;-82
2022/02/24 08:40:01;;;;;;;13.38;4.68;;;8.60;99.90;;;;;;5074210;28;20107;-83
2022/02/24 08:42:30;;;;;;;13.15;3.90;;;8.70;99.90;;;;;;5077235;28;20040;-82
2022/02/24 08:44:56;;;;;;;15.98;3.92;;;8.70;99.90;;;;;;5077671;28;20036;-83
2022/02/24 08:47:22;;;;;;;10.93;4.28;;;8.80;99.90;;;;;;5098479;28;20075;-83
2022/02/24 08:49:49;;;;;;;12.93;4.60;;;8.90;99.90;;;;;;5070274;28;20038;-82
2022/02/24 08:52:15;;;;;;;17.92;4.30;;;9.00;99.90;;;;;;5069900;28;20044;-81
2022/02/24 08:54:42;;;;;;;12.60;4.03;;;9.00;99.90;;;;;;5067785;28;20032;-82
2022/02/24 08:57:08;;;;;;;10.55;3.70;;;9.00;99.90;;;;;;5073203;28;20039;-79
2022/02/24 08:59:34;;;;;;;13.88;4.40;;;9.00;99.90;;;;;;5057538;28;20048;-81
2022/02/24 09:02:00;;;;;;;12.77;4.00;;;8.90;99.90;;;;;;5050380;28;20048;-82
2022/02/24 09:04:26;;;;;;;11.90;4.07;;;8.90;99.90;;;;;;5051561;28;20483;-81
2022/02/24 09:06:51;;;;;;;12.60;4.03;;;8.90;99.90;;;;;;5079085;28;20045;-82
2022/02/24 09:09:18;;;;;;;12.23;3.90;;;8.90;99.90;;;;;;5068971;28;20162;-80
2022/02/24 09:11:45;;;;;;;10.88;3.97;;;8.90;99.90;;;;;;5074926;28;20074;-82
2022/02/24 09:14:11;;;;;;;12.68;4.07;;;8.90;99.90;;;;;;5050983;28;20040;-81
2022/02/24 09:16:37;;;;;;;17.00;4.13;;;8.90;99.90;;;;;;5073568;28;20394;-82
2022/02/24 09:19:03;;;;;;;12.43;3.80;;;9.00;99.90;;;;;;5091734;28;20148;-80
2022/02/24 09:21:29;;;;;;;16.98;3.85;;;9.00;99.90;;;;;;5067431;28;20522;-84
2022/02/24 09:23:55;;;;;;;14.18;4.28;;;9.00;99.90;;;;;;5079716;28;20070;-81
2022/02/24 09:26:21;;;;;;;18.05;4.43;;;9.00;99.90;;;;;;5117649;27;20144;-82
2022/02/24 09:28:47;;;;;;;15.02;4.30;;;9.00;99.90;;;;;;5068269;28;20446;-84
2022/02/24 09:31:13;;;;;;;12.95;4.10;;;8.90;99.90;;;;;;5074777;28;20138;-82
2022/02/24 09:33:39;;;;;;;10.98;4.32;;;8.90;99.90;;;;;;5063074;28;20075;-81
2022/02/24 09:36:05;;;;;;;11.32;3.70;;;9.00;99.90;;;;;;5076419;28;20117;-81
2022/02/24 09:38:31;;;;;;;12.63;4.60;;;9.00;99.90;;;;;;5102670;27;20380;-79
2022/02/24 09:40:59;;;;;;;12.98;4.00;;;9.00;99.90;;;;;;5073147;28;20044;-82
2022/02/24 09:43:27;;;;;;;10.93;3.78;;;9.00;99.90;;;;;;5061771;28;20051;-81
2022/02/24 09:46:02;;;;;;;11.20;4.00;;;9.10;99.90;;;;;;5095554;28;20040;-78
2022/02/24 09:48:33;;;;;;;11.82;3.83;;;9.10;99.90;;;;;;5129603;27;20051;-82
2022/02/24 09:51:19;;;;;;;12.13;3.33;;;9.10;99.90;;;;;;5077834;28;20502;-80
2022/02/24 09:53:46;;;;;;;10.85;3.60;;;9.00;99.90;;;;;;5071240;28;20085;-82
2022/02/24 09:56:21;;;;;;;10.48;3.10;;;9.00;99.90;;;;;;5085667;28;20040;-80
2022/02/24 09:58:48;;;;;;;13.43;3.75;;;9.10;99.90;;;;;;5065150;28;20478;-80
2022/02/24 10:01:15;;;;;;;11.73;3.25;;;9.10;99.90;;;;;;5053934;28;20059;-80
2022/02/24 10:03:45;;;;;;;9.38;2.92;;;9.00;99.90;;;;;;5056098;28;20942;-81
2022/02/24 10:06:13;;;;;;;10.60;3.25;;;9.00;99.90;;;;;;5076373;28;20080;-82
2022/02/24 10:08:44;;;;;;;9.98;3.53;;;9.00;99.90;;;;;;5061424;28;20040;-81
2022/02/24 10:11:28;;;;;;;9.65;3.00;;;9.10;99.90;;;;;;5063005;28;20119;-82
2022/02/24 10:14:07;;;;;;;11.38;3.75;;;9.20;99.90;;;;;;5113456;27;20045;-81
2022/02/24 10:16:53;;;;;;;12.68;3.90;;;9.20;99.90;;;;;;5087706;28;20055;-81
2022/02/24 10:19:30;;;;;;;13.55;3.90;;;9.30;99.90;;;;;;5098641;27;20058;-82
2022/02/24 10:22:28;;;;;;;11.77;4.03;;;9.40;99.90;;;;;;5067203;28;20075;-82
2022/02/24 10:24:55;;;;;;;14.63;3.88;;;9.40;99.90;;;;;;5057146;28;20048;-82
2022/02/24 10:27:26;;;;;;;9.80;3.35;;;9.50;99.90;;;;;;5072517;28;20248;-78
2022/02/24 10:30:28;;;;;;;9.07;2.90;;;9.50;99.90;;;;;;5115821;27;20185;-81
2022/02/24 10:32:55;;;;;;;11.43;4.00;;;9.40;99.90;;;;;;5088945;28;20040;-80
2022/02/24 10:35:32;;;;;;;9.93;4.35;;;9.40;99.90;;;;;;5072134;28;20534;-80
2022/02/24 10:38:06;;;;;;;12.75;4.43;;;9.50;99.90;;;;;;5083506;28;20039;-82
2022/02/24 10:40:39;;;;;;;10.73;3.03;;;9.40;99.90;;;;;;5087848;28;20055;-81
2022/02/24 10:43:15;;;;;;;12.40;3.58;;;9.40;99.90;;;;;;5106284;28;20032;-82
2022/02/24 10:45:44;;;;;;;12.52;3.45;;;9.30;99.90;;;;;;5099427;28;20040;-81
2022/02/24 10:48:14;;;;;;;9.00;3.47;;;9.30;99.90;;;;;;5075841;28;20097;-82
2022/02/24 10:50:50;;;;;;;10.00;3.78;;;9.40;99.90;;;;;;5089792;28;20608;-80
2022/02/24 10:53:19;;;;;;;8.25;3.17;;;9.50;99.90;;;;;;5084903;28;20040;-81
2022/02/24 10:55:54;;;;;;;10.18;3.15;;;9.50;99.90;;;;;;5085224;28;20036;-82
2022/02/24 10:58:20;;;;;;;13.32;3.20;;;9.60;99.90;;;;;;5075760;28;20044;-83
2022/02/24 11:00:46;;;;;;;10.98;3.63;;;9.60;99.90;;;;;;5073540;28;20082;-85
2022/02/24 11:03:13;;;;;;;8.48;3.13;;;9.60;99.90;;;;;;5089593;28;20050;-79
2022/02/24 11:05:42;;;;;;;8.60;3.25;;;9.70;99.90;;;;;;5089971;28;20039;-80
2022/02/24 11:08:09;;;;;;;13.80;3.25;;;9.70;99.90;;;;;;5096717;28;20112;-82
2022/02/24 11:10:37;;;;;;;8.57;3.20;;;9.70;99.90;;;;;;5098211;28;20047;-81
2022/02/24 11:13:03;;;;;;;10.38;3.00;;;9.70;99.90;;;;;;5099530;28;20051;-83
2022/02/24 11:15:30;;;;;;;7.28;2.90;;;9.70;99.90;;;;;;5055964;28;20070;-81
2022/02/24 11:17:59;;;;;;;14.70;3.63;;;9.80;99.90;;;;;;5071331;28;20028;-83
2022/02/24 11:20:26;;;;;;;8.63;2.30;;;9.80;99.90;;;;;;5103472;27;20577;-74
2022/02/24 11:22:52;;;;;;;9.07;2.95;;;9.90;99.90;;;;;;5067469;28;20040;-82
2022/02/24 11:25:20;;;;;;;10.77;3.17;;;9.90;99.90;;;;;;5065040;28;20048;-81
2022/02/24 11:27:57;;;;;;;8.57;2.55;;;10.00;99.90;;;;;;5067350;28;20490;-82
2022/02/24 11:30:26;;;;;;;11.10;2.85;;;10.10;99.90;;;;;;5067594;28;20131;-84
2022/02/24 11:32:52;;;;;;;9.73;2.65;;;10.10;99.90;;;;;;5093149;28;20048;-81
2022/02/24 11:35:20;;;;;;;8.52;3.08;;;10.10;99.90;;;;;;5052928;28;20056;-76
2022/02/24 11:38:08;;;;;;;10.35;3.13;;;10.10;99.90;;;;;;5070187;28;20047;-81
2022/02/24 11:40:37;;;;;;;9.82;2.78;;;10.20;99.90;;;;;;5069404;28;20039;-82
2022/02/24 11:43:13;;;;;;;7.55;2.47;;;10.20;99.90;;;;;;5067916;28;20043;-82
2022/02/24 11:45:41;;;;;;;9.77;2.70;;;10.20;99.90;;;;;;5095800;27;20040;-85
2022/02/24 11:48:17;;;;;;;11.05;2.67;;;10.20;99.90;;;;;;5054211;28;20038;-80
2022/02/24 11:50:54;;;;;;;12.45;3.38;;;10.20;99.90;;;;;;5093273;28;20525;-82
2022/02/24 11:53:26;;;;;;;7.80;2.85;;;10.10;99.90;;;;;;5069503;28;20067;-80
2022/02/24 11:56:03;;;;;;;10.55;2.72;;;10.10;99.90;;;;;;5068963;28;20040;-82
2022/02/24 11:58:34;;;;;;;13.75;2.97;;;10.10;99.90;;;;;;5083596;28;20052;-84
2022/02/24 12:01:13;;;;;;;12.27;3.20;;;10.10;99.90;;;;;;5061247;28;20487;-84
2022/02/24 12:03:48;;;;;;;9.07;2.50;;;10.10;99.90;;;;;;5085773;28;20058;-83
2022/02/24 12:06:16;;;;;;;9.35;2.45;;;10.20;99.90;;;;;;5082730;28;20046;-84
2022/02/24 12:09:03;;;;;;;9.00;3.22;;;10.20;99.90;;;;;;5088487;28;20055;-84
2022/02/24 12:11:40;;;;;;;8.48;2.90;;;10.20;99.90;;;;;;5101270;28;20292;-79
2022/02/24 12:14:23;;;;;;;7.07;2.42;;;10.10;99.90;;;;;;5096057;28;20039;-79
2022/02/24 12:17:04;;;;;;;13.95;3.50;;;10.10;99.90;;;;;;5116453;27;20407;-83
2022/02/24 12:19:43;;;;;;;8.75;2.80;;;10.10;99.90;;;;;;5072504;28;20051;-80
2022/02/24 12:22:39;;;;;;;8.40;2.40;;;10.10;99.90;;;;;;5080123;28;20050;-82
2022/02/24 12:25:12;;;;;;;8.93;2.20;;;10.10;99.90;;;;;;5082438;28;20127;-82
2022/02/24 12:27:48;;;;;;;11.40;2.45;;;10.00;99.90;;;;;;5083005;28;20059;-84
2022/02/24 12:30:25;;;;;;;11.15;2.63;;;10.10;99.90;;;;;;5065459;28;20043;-83
2022/02/24 12:33:18;;;;;;;9.98;2.70;;;10.10;99.90;;;;;;5065248;28;20153;-82
2022/02/24 12:35:52;;;;;;;9.00;2.30;;;10.00;99.90;;;;;;5065780;28;20059;-82
2022/02/24 12:38:20;;;;;;;9.75;2.70;;;10.00;99.90;;;;;;5061945;28;20141;-83
2022/02/24 12:40:51;;;;;;;7.28;2.58;;;9.90;99.90;;;;;;5060812;28;20032;-84
2022/02/24 12:43:20;;;;;;;9.60;2.22;;;9.90;99.90;;;;;;5111777;27;20155;-84
2022/02/24 12:45:48;;;;;;;7.60;2.05;;;9.80;99.90;;;;;;5067620;28;20597;-84
2022/02/24 12:48:16;;;;;;;8.63;2.08;;;9.80;99.90;;;;;;5072139;28;20388;-82
2022/02/24 12:50:48;;;;;;;9.63;2.20;;;9.80;99.90;;;;;;5099775;28;20521;-81
2022/02/24 12:53:29;;;;;;;10.10;2.47;;;9.70;99.90;;;;;;5066603;28;20051;-83